Latest Weather Observations for Keith West

IDS60801

Issued at 8:01 am CDT Saturday 25 February 2017 (issued every 30 minutes, with the page automatically refreshed every 10 minutes)

About weather observations | Map of weather stations | Latest weather observations for SA | Other Formats
Station Details ID: 025557 Name: MUNKORA Lat: -36.11 Lon: 140.33 Height: 27.0 m
Data from the previous 72 hours. | See also: Recent months at Keith West
Date/Time
CDT
Temp
°C
App
Temp
°C
Dew
Point
°C
Rel
Hum
%
Delta-T
°C
Wind Press
QNH
hPa
Press
MSL
hPa
Rain since
9am
mm
Dir  Spd
km/h
Gust
km/h
Spd
kts
Gust
kts
25/08:00am 11.2 9.9 9.8 91 0.7 S 7 11 4 6 1025.5 1025.5 0.0
25/07:30am 9.1 7.3 7.9 92 0.6 SSW 7 7 4 4 1025.4 1025.4 0.0
25/07:00am 8.8 7.1 7.6 92 0.6 S 6 9 3 5 1025.3 1025.3 0.0
25/06:30am 8.4 6.0 7.0 91 0.6 S 9 11 5 6 1025.5 1025.5 0.0
25/06:00am 8.9 6.2 7.5 91 0.7 SSW 11 13 6 7 1025.4 1025.4 0.0
25/05:30am 9.0 6.7 7.6 91 0.7 S 9 11 5 6 1025.0 1024.9 0.0
25/05:00am 8.7 6.0 7.2 90 0.7 S 11 13 6 7 1024.9 1024.8 0.0
25/04:30am 8.8 6.8 7.1 89 0.8 S 7 9 4 5 1024.7 1024.6 0.0
25/04:00am 9.2 7.2 7.3 88 0.9 S 7 11 4 6 1024.7 1024.6 0.0
25/03:30am 9.3 7.3 7.3 87 0.9 S 7 11 4 6 1024.7 1024.6 0.0
25/03:00am 10.3 8.1 7.7 84 1.2 S 9 13 5 7 1024.7 1024.6 0.0
25/02:30am 10.4 7.7 7.3 81 1.5 SSE 11 15 6 8 1024.9 1024.8 0.0
25/02:00am 11.1 8.8 7.6 79 1.7 S 9 17 5 9 1025.2 1025.1 0.0
25/01:30am 11.6 8.9 7.5 76 2.0 S 11 17 6 9 1025.5 1025.5 0.0
25/01:00am 11.0 8.3 7.5 79 1.7 S 11 17 6 9 1025.6 1025.6 0.0
25/12:30am 11.1 8.4 7.2 77 1.9 S 11 15 6 8 1025.7 1025.7 0.0
25/12:00am 11.7 8.7 7.6 76 2.0 SSW 13 15 7 8 1025.7 1025.7 0.0
 
Date/Time
CDT
Temp
°C
App
Temp
°C
Dew
Point
°C
Rel
Hum
%
Delta-T
°C
Wind Press
QNH
hPa
Press
MSL
hPa
Rain since
9am
mm
Dir  Spd
km/h
Gust
km/h
Spd
kts
Gust
kts
24/11:30pm 12.1 9.0 7.4 73 2.3 SSW 13 15 7 8 1025.6 1025.6 0.0
24/11:00pm 12.5 9.4 7.4 71 2.5 SSW 13 15 7 8 1025.6 1025.6 0.0
24/10:30pm 13.1 10.0 7.1 67 2.9 SSW 13 15 7 8 1025.7 1025.7 0.0
24/10:00pm 14.3 11.2 7.4 63 3.4 SSW 13 15 7 8 1025.6 1025.6 0.0
24/09:30pm 15.9 12.1 7.4 57 4.2 SSW 17 20 9 11 1025.4 1025.4 0.0
24/09:00pm 17.0 12.8 7.4 53 4.8 SSW 19 24 10 13 1025.0 1024.9 0.0
24/08:30pm 16.8 13.7 7.4 54 4.7 SSW 13 19 7 10 1024.7 1024.6 0.0
24/08:00pm 19.0 15.1 7.1 46 6.0 S 17 24 9 13 1024.4 1024.3 0.0
24/07:30pm 20.4 15.7 7.7 44 6.5 S 22 30 12 16 1024.1 1024.0 0.0
24/07:00pm 21.6 16.1 7.4 40 7.3 SSW 26 33 14 18 1023.7 1023.6 0.0
24/06:30pm 22.5 16.9 7.1 37 7.9 SSW 26 35 14 19 1023.8 1023.7 0.0
24/06:00pm 23.2 18.0 7.3 36 8.2 SSW 24 35 13 19 1023.7 1023.6 0.0
24/05:30pm 24.5 19.4 7.6 34 8.9 S 24 37 13 20 1023.5 1023.4 0.0
24/05:00pm 24.5 19.7 7.2 33 9.1 SSW 22 35 12 19 1023.3 1023.2 0.0
24/04:30pm 25.1 20.2 6.8 31 9.5 S 22 33 12 18 1023.4 1023.3 0.0
24/04:00pm 24.7 19.4 6.9 32 9.3 S 24 35 13 19 1023.7 1023.6 0.0
24/03:30pm 25.5 20.2 6.7 30 9.8 SSW 24 32 13 17 1023.7 1023.6 0.0
24/03:00pm 25.1 19.8 6.8 31 9.5 SSW 24 33 13 18 1023.8 1023.7 0.0
24/02:30pm 24.7 19.7 6.4 31 9.4 S 22 37 12 20 1024.1 1024.0 0.0
24/02:00pm 23.6 18.6 6.4 33 8.8 S 22 33 12 18 1024.4 1024.3 0.0
24/01:30pm 23.6 19.0 6.4 33 8.8 SSW 20 33 11 18 1024.8 1024.7 0.0
24/01:00pm 23.3 18.8 7.0 35 8.4 SSW 20 33 11 18 1025.2 1025.1 0.0
24/12:30pm 22.3 17.9 7.3 38 7.7 S 20 32 11 17 1025.5 1025.5 0.0
24/12:00pm 22.1 18.5 8.2 41 7.3 SSW 17 28 9 15 1025.8 1025.8 0.0
24/11:30am 21.3 17.6 7.9 42 6.9 S 17 22 9 12 1026.2 1026.2 0.0
24/11:00am 19.8 16.0 7.5 45 6.3 S 17 26 9 14 1026.6 1026.6 0.0
24/10:30am 19.4 14.6 7.5 46 6.0 S 22 33 12 18 1026.7 1026.7 0.0
24/10:00am 18.6 15.7 8.0 50 5.4 SSE 13 22 7 12 1026.6 1026.6 0.0
24/09:30am 16.8 14.6 7.7 55 4.6 SSE 9 15 5 8 1026.7 1026.7 0.0
24/09:00am 15.2 13.5 8.4 64 3.4 SSE 7 9 4 5 1026.6 1026.6 0.0
24/08:30am 11.9 11.4 9.3 84 1.3 S 2 4 1 2 1026.3 1026.3 0.0
24/08:00am 8.7 8.2 7.8 94 0.4 CALM 0 0 0 0 1026.0 1026.0 0.0
24/07:30am 5.4 3.8 4.5 94 0.4 WNW 2 7 1 4 1025.7 1025.7 0.0
24/07:00am 4.4 3.0 3.4 93 0.4 CALM 0 0 0 0 1025.2 1025.1 0.0
24/06:30am 4.0 2.5 3.0 93 0.4 CALM 0 0 0 0 1025.0 1024.9 0.0
24/06:00am 3.8 2.2 2.6 92 0.5 CALM 0 0 0 0 1024.7 1024.6 0.0
24/05:30am 4.2 2.7 3.0 92 0.5 CALM 0 2 0 1 1024.6 1024.5 0.0
24/05:00am 5.5 3.2 4.6 94 0.4 SSW 6 7 3 4 1024.2 1024.1 0.0
24/04:30am 5.2 3.8 3.7 90 0.6 CALM 0 2 0 1 1024.0 1023.9 0.0
24/04:00am 7.9 6.3 6.5 91 0.6 SSW 4 6 2 3 1024.0 1023.9 0.0
24/03:30am 6.7 4.8 5.0 89 0.7 S 4 6 2 3 1023.8 1023.7 0.0
24/03:00am 6.5 4.4 4.0 84 1.1 SSW 4 6 2 3 1023.8 1023.7 0.0
24/02:30am 9.1 7.3 7.1 87 0.9 SSW 6 7 3 4 1023.9 1023.8 0.0
24/02:00am 9.3 7.3 6.9 85 1.1 SW 7 11 4 6 1024.1 1024.0 0.0
24/01:30am 10.0 8.2 7.1 82 1.4 SSW 6 9 3 5 1024.3 1024.2 0.0
24/01:00am 10.7 8.9 7.8 82 1.4 SSW 7 11 4 6 1024.5 1024.4 0.0
24/12:30am 11.1 8.6 8.0 81 1.5 SW 11 13 6 7 1024.5 1024.4 0.0
24/12:00am 11.4 9.3 8.4 82 1.5 SW 9 11 5 6 1024.4 1024.3 0.0
 
Date/Time
CDT
Temp
°C
App
Temp
°C
Dew
Point
°C
Rel
Hum
%
Delta-T
°C
Wind Press
QNH
hPa
Press
MSL
hPa
Rain since
9am
mm
Dir  Spd
km/h
Gust
km/h
Spd
kts
Gust
kts
23/11:30pm 11.6 9.8 8.1 79 1.7 SW 7 9 4 5 1024.1 1024.0 0.0
23/11:00pm 12.5 10.2 9.0 79 1.8 SSW 11 13 6 7 1024.0 1023.9 0.0
23/10:30pm 13.2 10.5 9.1 76 2.1 SW 13 17 7 9 1024.0 1023.9 0.0
23/10:00pm 13.6 11.3 9.1 74 2.3 SW 11 15 6 8 1023.7 1023.6 0.0
23/09:30pm 14.7 12.1 9.3 70 2.8 SSW 13 17 7 9 1023.5 1023.4 0.0
23/09:00pm 15.5 12.8 9.0 65 3.3 SW 13 19 7 10 1023.1 1023.0 0.0
23/08:30pm 16.7 13.6 8.7 59 4.1 SW 15 22 8 12 1022.7 1022.6 0.0
23/08:00pm 17.4 13.9 8.8 57 4.4 SW 17 24 9 13 1022.3 1022.2 0.0
23/07:30pm 19.3 16.0 9.5 53 5.2 SW 17 22 9 12 1021.6 1021.5 0.0
23/07:00pm 20.4 17.1 9.6 50 5.8 SW 17 22 9 12 1021.3 1021.2 0.0
23/06:30pm 21.4 18.7 10.3 49 6.0 SW 15 19 8 10 1021.0 1020.9 0.0
23/06:00pm 22.3 19.8 11.1 49 6.2 SW 15 24 8 13 1020.9 1020.8 0.0
23/05:30pm 21.6 18.2 10.4 49 6.1 SW 19 26 10 14 1020.7 1020.6 0.0
23/05:00pm 21.3 18.0 10.8 51 5.8 SW 19 24 10 13 1020.5 1020.4 0.0
23/04:30pm 22.0 18.6 11.1 50 6.0 SW 20 28 11 15 1020.4 1020.3 0.0
23/04:00pm 22.6 19.6 10.7 47 6.6 SW 17 24 9 13 1020.3 1020.2 0.0
23/03:30pm 23.7 21.1 12.0 48 6.6 SW 17 24 9 13 1020.2 1020.1 0.0
23/03:00pm 22.2 19.6 10.7 48 6.3 SW 15 28 8 15 1020.3 1020.2 0.0
23/02:30pm 22.3 18.8 10.8 48 6.3 SW 20 30 11 16 1020.3 1020.2 0.0
23/02:00pm 22.4 19.6 11.2 49 6.2 SW 17 26 9 14 1020.4 1020.3 0.0
23/01:30pm 21.8 19.5 10.6 49 6.1 WSW 13 22 7 12 1020.3 1020.2 0.0
23/01:00pm 22.1 20.3 10.9 49 6.2 WSW 11 17 6 9 1020.2 1020.1 0.0
23/12:30pm 21.2 18.8 11.5 54 5.4 SW 15 19 8 10 1020.4 1020.3 0.0
23/12:00pm 20.5 18.7 12.0 58 4.7 SW 13 20 7 11 1020.8 1020.7 0.0
23/11:30am 19.5 17.4 12.3 63 4.0 SW 15 24 8 13 1020.7 1020.6 0.0
23/11:00am 19.3 16.7 12.1 63 4.0 WSW 17 24 9 13 1020.6 1020.5 0.0
23/10:30am 18.5 17.4 13.1 71 3.0 WSW 11 19 6 10 1020.5 1020.4 0.0
23/10:00am 17.5 16.1 13.4 77 2.3 SW 13 19 7 10 1020.2 1020.1 0.0
23/09:30am 18.3 16.6 13.6 74 2.7 W 15 20 8 11 1019.8 1019.7 0.0
23/09:00am 18.7 17.4 13.8 73 2.8 SSW 13 20 7 11 1019.1 1019.0 0.0
23/08:30am 17.9 15.7 13.2 74 2.6 WSW 17 24 9 13 1018.8 1018.7 0.0
23/08:00am 17.3 16.6 13.2 77 2.3 WSW 9 13 5 7 1018.4 1018.3 0.0
23/07:30am 16.8 16.1 13.1 79 2.1 SW 9 15 5 8 1017.9 1017.8 0.0
23/07:00am 16.7 15.3 13.4 81 1.9 SW 13 19 7 10 1017.2 1017.1 0.0
23/06:30am 16.7 14.2 13.4 81 1.9 SW 19 24 10 13 1016.5 1016.4 0.0
23/06:00am 16.9 14.3 13.2 79 2.1 WSW 19 26 10 14 1016.0 1015.9 0.0
23/05:30am 17.4 14.9 13.5 78 2.2 WSW 19 32 10 17 1015.6 1015.5 0.0
23/05:00am 17.2 14.6 13.7 80 2.0 WSW 20 26 11 14 1015.4 1015.3 0.0
23/04:30am 16.6 14.1 13.5 82 1.7 WSW 19 28 10 15 1015.2 1015.1 0.0
23/04:00am 16.9 12.6 13.2 79 2.1 WSW 28 39 15 21 1014.6 1014.5 0.0
23/03:30am 17.1 13.2 13.4 79 2.1 WSW 26 35 14 19 1014.3 1014.2 0.0
23/03:00am 17.2 12.9 13.3 78 2.2 WSW 28 39 15 21 1014.1 1014.0 0.0
23/02:30am 17.2 13.9 12.9 76 2.4 W 22 30 12 16 1014.2 1014.1 0.0
23/02:00am 17.5 14.6 13.0 75 2.5 WSW 20 32 11 17 1014.2 1014.1 0.0
23/01:30am 17.9 13.5 12.8 72 2.9 WSW 28 37 15 20 1014.1 1014.0 0.0
23/01:00am 17.8 14.1 12.7 72 2.8 W 24 32 13 17 1014.2 1014.1 0.0
23/12:30am 18.1 13.7 13.0 72 2.9 W 28 43 15 23 1013.9 1013.8 0.0
23/12:00am 18.2 14.9 12.9 71 3.0 W 22 30 12 16 1013.9 1013.8 0.0
 
Date/Time
CDT
Temp
°C
App
Temp
°C
Dew
Point
°C
Rel
Hum
%
Delta-T
°C
Wind Press
QNH
hPa
Press
MSL
hPa
Rain since
9am
mm
Dir  Spd
km/h
Gust
km/h
Spd
kts
Gust
kts
22/11:30pm 18.2 14.8 12.4 69 3.2 W 22 30 12 16 1013.9 1013.8 0.0
22/11:00pm 18.3 15.3 11.8 66 3.6 NW 19 28 10 15 1013.9 1013.8 0.0
22/10:30pm 18.2 16.1 11.3 64 3.8 NW 13 19 7 10 1013.8 1013.7 0.0
22/10:00pm 18.4 16.3 11.2 63 3.9 NW 13 22 7 12 1013.7 1013.6 0.0
22/09:30pm 19.1 16.2 10.9 59 4.5 WNW 17 28 9 15 1013.6 1013.5 0.0
22/09:00pm 19.4 14.9 10.1 55 5.0 W 24 30 13 16 1013.2 1013.1 0.0
22/08:30pm 20.0 14.0 10.1 53 5.3 W 32 44 17 24 1012.5 1012.4 0.0
22/08:00pm 20.7 16.3 9.0 47 6.2 W 22 33 12 18 1012.1 1012.0 0.0
22/07:30pm 22.0 15.6 9.2 44 6.9 W 33 44 18 24 1011.5 1011.4 0.0
22/07:00pm 23.3 16.4 9.0 40 7.7 WNW 35 44 19 24 1010.9 1010.8 0.0
22/06:30pm 23.6 16.1 8.1 37 8.2 W 37 52 20 28 1010.7 1010.6 0.0
22/06:00pm 22.7 15.0 6.9 36 8.1 W 37 50 20 27 1010.6 1010.5 0.0
22/05:30pm 25.1 18.2 9.0 36 8.7 W 35 46 19 25 1010.1 1010.0 0.0
22/05:00pm 25.9 17.6 9.3 35 9.1 W 43 56 23 30 1009.4 1009.3 0.0
22/04:36pm 27.8 20.7 9.6 32 10.1 W 37 56 20 30 1009.1 1009.0 0.0
22/04:30pm 27.7 20.1 9.0 31 10.3 W 39 50 21 27 1009.0 1008.9 0.0
22/04:00pm 27.7 18.9 9.5 32 10.1 W 46 61 25 33 1008.0 1007.9 0.0
22/03:38pm 30.1 21.6 9.1 27 11.7 WNW 44 57 24 31 1007.7 1007.6 0.0
22/03:30pm 30.7 19.8 3.7 18 13.8 NW 50 70 27 38 1007.7 1007.6 0.0
22/03:13pm 31.9 23.1 5.4 19 14.0 NW 41 65 22 35 1007.6 1007.5 0.0
22/03:00pm 32.3 23.2 5.7 19 14.2 NW 43 57 23 31 1007.8 1007.7 0.0
22/02:46pm 32.4 25.5 6.6 20 14.0 NW 32 57 17 31 1007.9 1007.8 0.0
22/02:30pm 31.6 24.6 8.6 24 12.8 WNW 35 52 19 28 1008.0 1007.9 0.0
22/02:00pm 30.6 23.6 11.1 30 11.3 W 39 56 21 30 1008.2 1008.1 0.0
22/01:30pm 31.6 23.0 8.0 23 13.1 WNW 43 56 23 30 1007.9 1007.8 0.0
22/01:08pm 33.3 24.2 4.1 16 15.3 NW 41 56 22 30 1007.5 1007.4 0.0
22/01:00pm 35.3 25.2 0.4 11 17.4 NNW 43 56 23 30 1007.7 1007.6 0.0
22/12:30pm 34.3 23.5 -0.4 11 17.0 NNW 46 67 25 36 1008.1 1008.0 0.0
22/12:03pm 34.1 24.4 0.7 12 16.6 NNW 41 61 22 33 1008.7 1008.6 0.0
22/12:00pm 33.1 22.9 -0.1 12 16.2 N 43 61 23 33 1008.8 1008.7 0.0
22/11:32am 32.6 22.2 -0.5 12 16.0 N 44 63 24 34 1009.0 1008.9 0.0
22/11:30am 33.0 22.6 -0.2 12 16.2 N 44 57 24 31 1009.0 1008.9 0.0
22/11:06am 32.6 23.5 -0.5 12 16.0 N 37 65 20 35 1009.1 1009.0 0.0
22/11:00am 32.0 22.9 -0.9 12 15.7 N 37 50 20 27 1009.2 1009.1 0.0
22/10:32am 30.4 21.2 -1.1 13 14.8 N 37 57 20 31 1009.6 1009.5 0.0
22/10:30am 30.4 20.9 -1.1 13 14.8 N 39 57 21 31 1009.7 1009.6 0.0
22/10:00am 28.7 19.5 -1.4 14 13.9 N 37 54 20 29 1009.9 1009.8 0.0
22/09:30am 27.4 18.8 0.2 17 12.8 N 35 46 19 25 1009.7 1009.6 0.0
22/09:00am 24.5 16.7 1.4 22 10.9 NNE 32 44 17 24 1009.6 1009.5 0.0
22/08:30am 22.8 15.2 0.6 23 10.2 NNE 30 43 16 23 1010.0 1009.9 0.0

Other Formats:

Comma delimited format used in spreadsheet applications
http://www.bom.gov.au/fwo/IDS60801/IDS60801.95815.axf

JavaScript Object Notation format (JSON) in row-major order
http://www.bom.gov.au/fwo/IDS60801/IDS60801.95815.json